sensor_id;sensor_type;location;lat;lon;timestamp;P1;durP1;ratioP1;P2;durP2;ratioP2
29294;SDS011;16305;48.566;8.846;2022-11-15T00:00:23;7.10;;;4.23;;
29294;SDS011;16305;48.566;8.846;2022-11-15T00:02:49;6.43;;;4.50;;
29294;SDS011;16305;48.566;8.846;2022-11-15T00:05:15;7.23;;;5.50;;
29294;SDS011;16305;48.566;8.846;2022-11-15T00:07:40;7.80;;;6.60;;
29294;SDS011;16305;48.566;8.846;2022-11-15T00:10:06;8.67;;;6.63;;
29294;SDS011;16305;48.566;8.846;2022-11-15T00:12:31;8.90;;;6.93;;
29294;SDS011;16305;48.566;8.846;2022-11-15T00:14:57;8.33;;;7.37;;
29294;SDS011;16305;48.566;8.846;2022-11-15T00:17:22;10.37;;;8.53;;
29294;SDS011;16305;48.566;8.846;2022-11-15T00:19:48;13.23;;;9.57;;
29294;SDS011;16305;48.566;8.846;2022-11-15T00:22:14;10.63;;;8.83;;
29294;SDS011;16305;48.566;8.846;2022-11-15T00:24:39;15.67;;;9.30;;
29294;SDS011;16305;48.566;8.846;2022-11-15T00:27:05;13.77;;;9.70;;
29294;SDS011;16305;48.566;8.846;2022-11-15T00:29:31;15.10;;;10.53;;
29294;SDS011;16305;48.566;8.846;2022-11-15T00:31:56;10.87;;;8.80;;
29294;SDS011;16305;48.566;8.846;2022-11-15T00:34:22;11.37;;;8.57;;
29294;SDS011;16305;48.566;8.846;2022-11-15T00:36:47;12.00;;;8.07;;
29294;SDS011;16305;48.566;8.846;2022-11-15T00:39:13;10.77;;;7.63;;
29294;SDS011;16305;48.566;8.846;2022-11-15T00:41:38;8.73;;;7.43;;
29294;SDS011;16305;48.566;8.846;2022-11-15T00:44:04;10.17;;;7.03;;
29294;SDS011;16305;48.566;8.846;2022-11-15T00:46:29;10.47;;;7.40;;
29294;SDS011;16305;48.566;8.846;2022-11-15T00:48:55;10.20;;;7.70;;
29294;SDS011;16305;48.566;8.846;2022-11-15T00:51:20;17.30;;;10.57;;
29294;SDS011;16305;48.566;8.846;2022-11-15T00:53:46;13.37;;;8.40;;
29294;SDS011;16305;48.566;8.846;2022-11-15T00:56:11;9.73;;;6.80;;
29294;SDS011;16305;48.566;8.846;2022-11-15T00:58:37;12.37;;;7.10;;
29294;SDS011;16305;48.566;8.846;2022-11-15T01:01:06;10.93;;;7.90;;
29294;SDS011;16305;48.566;8.846;2022-11-15T01:03:36;14.43;;;8.10;;
29294;SDS011;16305;48.566;8.846;2022-11-15T01:06:03;10.30;;;7.93;;
29294;SDS011;16305;48.566;8.846;2022-11-15T01:08:29;7.37;;;5.73;;
29294;SDS011;16305;48.566;8.846;2022-11-15T01:10:59;9.30;;;5.57;;
29294;SDS011;16305;48.566;8.846;2022-11-15T01:13:32;6.70;;;4.90;;
29294;SDS011;16305;48.566;8.846;2022-11-15T01:16:05;6.63;;;5.37;;
29294;SDS011;16305;48.566;8.846;2022-11-15T01:18:35;5.93;;;4.97;;
29294;SDS011;16305;48.566;8.846;2022-11-15T01:21:08;7.13;;;5.13;;
29294;SDS011;16305;48.566;8.846;2022-11-15T01:23:35;9.20;;;5.03;;
29294;SDS011;16305;48.566;8.846;2022-11-15T01:26:02;6.17;;;4.70;;
29294;SDS011;16305;48.566;8.846;2022-11-15T01:28:33;7.37;;;4.80;;
29294;SDS011;16305;48.566;8.846;2022-11-15T01:31:00;5.30;;;4.30;;
29294;SDS011;16305;48.566;8.846;2022-11-15T01:33:27;5.93;;;4.37;;
29294;SDS011;16305;48.566;8.846;2022-11-15T01:35:53;9.53;;;4.50;;
29294;SDS011;16305;48.566;8.846;2022-11-15T01:38:19;6.30;;;4.07;;
29294;SDS011;16305;48.566;8.846;2022-11-15T01:40:45;4.80;;;3.90;;
29294;SDS011;16305;48.566;8.846;2022-11-15T01:43:18;5.83;;;4.43;;
29294;SDS011;16305;48.566;8.846;2022-11-15T01:45:56;5.63;;;3.77;;
29294;SDS011;16305;48.566;8.846;2022-11-15T01:48:33;6.77;;;3.60;;
29294;SDS011;16305;48.566;8.846;2022-11-15T01:51:00;6.67;;;3.60;;
29294;SDS011;16305;48.566;8.846;2022-11-15T01:53:31;7.07;;;3.60;;
29294;SDS011;16305;48.566;8.846;2022-11-15T01:55:59;5.30;;;4.10;;
29294;SDS011;16305;48.566;8.846;2022-11-15T01:58:28;6.00;;;4.70;;
29294;SDS011;16305;48.566;8.846;2022-11-15T02:00:54;7.10;;;4.93;;
29294;SDS011;16305;48.566;8.846;2022-11-15T02:03:20;7.30;;;4.93;;
29294;SDS011;16305;48.566;8.846;2022-11-15T02:05:50;10.40;;;5.87;;
29294;SDS011;16305;48.566;8.846;2022-11-15T02:08:16;7.53;;;5.33;;
29294;SDS011;16305;48.566;8.846;2022-11-15T02:10:45;8.17;;;5.30;;
29294;SDS011;16305;48.566;8.846;2022-11-15T02:13:11;7.90;;;5.37;;
29294;SDS011;16305;48.566;8.846;2022-11-15T02:15:40;7.00;;;4.73;;
29294;SDS011;16305;48.566;8.846;2022-11-15T02:18:23;8.20;;;5.30;;
29294;SDS011;16305;48.566;8.846;2022-11-15T02:21:14;10.60;;;5.17;;
29294;SDS011;16305;48.566;8.846;2022-11-15T02:32:04;5.90;;;4.47;;
29294;SDS011;16305;48.566;8.846;2022-11-15T02:35:12;6.10;;;4.97;;
29294;SDS011;16305;48.566;8.846;2022-11-15T02:37:37;6.90;;;5.47;;
29294;SDS011;16305;48.566;8.846;2022-11-15T02:43:08;6.97;;;5.37;;
29294;SDS011;16305;48.566;8.846;2022-11-15T02:45:57;7.10;;;5.50;;
29294;SDS011;16305;48.566;8.846;2022-11-15T02:48:31;15.17;;;9.27;;
29294;SDS011;16305;48.566;8.846;2022-11-15T02:50:57;10.63;;;7.90;;
29294;SDS011;16305;48.566;8.846;2022-11-15T02:53:24;9.47;;;5.80;;
29294;SDS011;16305;48.566;8.846;2022-11-15T02:55:50;10.43;;;5.90;;
29294;SDS011;16305;48.566;8.846;2022-11-15T03:03:57;9.03;;;5.27;;
29294;SDS011;16305;48.566;8.846;2022-11-15T03:06:42;7.10;;;5.50;;
29294;SDS011;16305;48.566;8.846;2022-11-15T03:09:19;8.77;;;5.10;;
29294;SDS011;16305;48.566;8.846;2022-11-15T03:12:00;7.70;;;5.70;;
29294;SDS011;16305;48.566;8.846;2022-11-15T03:14:33;9.83;;;5.97;;
29294;SDS011;16305;48.566;8.846;2022-11-15T03:17:12;8.87;;;6.20;;
29294;SDS011;16305;48.566;8.846;2022-11-15T03:19:50;10.50;;;6.63;;
29294;SDS011;16305;48.566;8.846;2022-11-15T03:22:19;10.77;;;7.57;;
29294;SDS011;16305;48.566;8.846;2022-11-15T03:24:47;10.60;;;7.33;;
29294;SDS011;16305;48.566;8.846;2022-11-15T03:27:19;13.67;;;7.97;;
29294;SDS011;16305;48.566;8.846;2022-11-15T03:29:52;8.77;;;6.70;;
29294;SDS011;16305;48.566;8.846;2022-11-15T03:32:24;9.17;;;7.00;;
29294;SDS011;16305;48.566;8.846;2022-11-15T03:35:09;9.90;;;7.63;;
29294;SDS011;16305;48.566;8.846;2022-11-15T03:40:30;8.43;;;6.03;;
29294;SDS011;16305;48.566;8.846;2022-11-15T03:43:19;8.50;;;6.50;;
29294;SDS011;16305;48.566;8.846;2022-11-15T03:45:55;7.57;;;6.63;;
29294;SDS011;16305;48.566;8.846;2022-11-15T03:48:43;7.00;;;5.93;;
29294;SDS011;16305;48.566;8.846;2022-11-15T03:51:14;7.03;;;5.93;;
29294;SDS011;16305;48.566;8.846;2022-11-15T03:53:40;7.70;;;5.37;;
29294;SDS011;16305;48.566;8.846;2022-11-15T03:56:06;8.17;;;5.37;;
29294;SDS011;16305;48.566;8.846;2022-11-15T03:58:31;6.50;;;4.57;;
29294;SDS011;16305;48.566;8.846;2022-11-15T04:00:57;8.07;;;5.27;;
29294;SDS011;16305;48.566;8.846;2022-11-15T04:03:24;8.10;;;5.37;;
29294;SDS011;16305;48.566;8.846;2022-11-15T04:05:50;8.93;;;5.60;;
29294;SDS011;16305;48.566;8.846;2022-11-15T04:08:15;10.60;;;6.00;;
29294;SDS011;16305;48.566;8.846;2022-11-15T04:10:41;8.87;;;5.03;;
29294;SDS011;16305;48.566;8.846;2022-11-15T04:13:06;7.20;;;5.67;;
29294;SDS011;16305;48.566;8.846;2022-11-15T04:15:32;7.17;;;5.30;;
29294;SDS011;16305;48.566;8.846;2022-11-15T04:17:58;7.50;;;5.40;;
29294;SDS011;16305;48.566;8.846;2022-11-15T04:20:28;9.40;;;6.47;;
29294;SDS011;16305;48.566;8.846;2022-11-15T04:23:14;7.93;;;5.63;;
29294;SDS011;16305;48.566;8.846;2022-11-15T04:26:11;6.70;;;5.53;;
29294;SDS011;16305;48.566;8.846;2022-11-15T04:28:39;7.90;;;5.83;;
29294;SDS011;16305;48.566;8.846;2022-11-15T04:31:25;4.83;;;4.33;;
29294;SDS011;16305;48.566;8.846;2022-11-15T04:33:51;5.83;;;4.47;;
29294;SDS011;16305;48.566;8.846;2022-11-15T04:36:16;8.40;;;5.07;;
29294;SDS011;16305;48.566;8.846;2022-11-15T04:39:01;7.70;;;4.27;;
29294;SDS011;16305;48.566;8.846;2022-11-15T04:41:26;6.07;;;4.47;;
29294;SDS011;16305;48.566;8.846;2022-11-15T04:43:52;5.00;;;4.10;;
29294;SDS011;16305;48.566;8.846;2022-11-15T04:46:17;6.30;;;4.33;;
29294;SDS011;16305;48.566;8.846;2022-11-15T04:48:43;7.73;;;3.90;;
29294;SDS011;16305;48.566;8.846;2022-11-15T04:51:08;4.43;;;4.03;;
29294;SDS011;16305;48.566;8.846;2022-11-15T04:53:34;6.73;;;4.87;;
29294;SDS011;16305;48.566;8.846;2022-11-15T04:55:59;5.43;;;3.87;;
29294;SDS011;16305;48.566;8.846;2022-11-15T04:58:25;6.00;;;4.83;;
29294;SDS011;16305;48.566;8.846;2022-11-15T05:00:50;11.53;;;5.20;;
29294;SDS011;16305;48.566;8.846;2022-11-15T05:03:16;6.43;;;5.30;;
29294;SDS011;16305;48.566;8.846;2022-11-15T05:06:00;7.83;;;4.93;;
29294;SDS011;16305;48.566;8.846;2022-11-15T05:08:26;7.43;;;4.70;;
29294;SDS011;16305;48.566;8.846;2022-11-15T05:10:51;7.37;;;5.53;;
29294;SDS011;16305;48.566;8.846;2022-11-15T05:13:17;7.27;;;5.53;;
29294;SDS011;16305;48.566;8.846;2022-11-15T05:15:42;5.67;;;4.80;;
29294;SDS011;16305;48.566;8.846;2022-11-15T05:18:08;9.20;;;4.90;;
29294;SDS011;16305;48.566;8.846;2022-11-15T05:20:34;6.23;;;5.00;;
29294;SDS011;16305;48.566;8.846;2022-11-15T05:23:00;6.17;;;5.17;;
29294;SDS011;16305;48.566;8.846;2022-11-15T05:25:25;6.00;;;4.50;;
29294;SDS011;16305;48.566;8.846;2022-11-15T05:27:51;4.73;;;3.93;;
29294;SDS011;16305;48.566;8.846;2022-11-15T05:30:17;4.93;;;3.90;;
29294;SDS011;16305;48.566;8.846;2022-11-15T05:32:43;4.93;;;4.23;;
29294;SDS011;16305;48.566;8.846;2022-11-15T05:35:10;5.60;;;4.80;;
29294;SDS011;16305;48.566;8.846;2022-11-15T05:37:40;5.17;;;4.00;;
29294;SDS011;16305;48.566;8.846;2022-11-15T05:40:06;4.37;;;3.60;;
29294;SDS011;16305;48.566;8.846;2022-11-15T05:42:32;7.33;;;3.47;;
29294;SDS011;16305;48.566;8.846;2022-11-15T05:44:57;6.13;;;4.10;;
29294;SDS011;16305;48.566;8.846;2022-11-15T05:47:27;5.27;;;4.73;;
29294;SDS011;16305;48.566;8.846;2022-11-15T05:49:55;7.63;;;5.30;;
29294;SDS011;16305;48.566;8.846;2022-11-15T05:52:22;7.07;;;6.37;;
29294;SDS011;16305;48.566;8.846;2022-11-15T05:54:52;8.47;;;6.00;;
29294;SDS011;16305;48.566;8.846;2022-11-15T05:57:18;9.33;;;6.10;;
29294;SDS011;16305;48.566;8.846;2022-11-15T05:59:44;7.67;;;5.37;;
29294;SDS011;16305;48.566;8.846;2022-11-15T06:02:10;5.43;;;4.93;;
29294;SDS011;16305;48.566;8.846;2022-11-15T06:04:35;6.97;;;5.10;;
29294;SDS011;16305;48.566;8.846;2022-11-15T06:07:01;8.67;;;5.10;;
29294;SDS011;16305;48.566;8.846;2022-11-15T06:09:27;6.37;;;5.07;;
29294;SDS011;16305;48.566;8.846;2022-11-15T06:11:52;10.17;;;4.73;;
29294;SDS011;16305;48.566;8.846;2022-11-15T06:14:18;9.13;;;5.57;;
29294;SDS011;16305;48.566;8.846;2022-11-15T06:16:43;7.70;;;6.40;;
29294;SDS011;16305;48.566;8.846;2022-11-15T06:19:09;8.47;;;6.30;;
29294;SDS011;16305;48.566;8.846;2022-11-15T06:21:34;7.77;;;6.30;;
29294;SDS011;16305;48.566;8.846;2022-11-15T06:24:00;8.07;;;6.43;;
29294;SDS011;16305;48.566;8.846;2022-11-15T06:26:26;10.63;;;8.93;;
29294;SDS011;16305;48.566;8.846;2022-11-15T06:28:51;16.00;;;12.23;;
29294;SDS011;16305;48.566;8.846;2022-11-15T06:31:17;20.77;;;14.60;;
29294;SDS011;16305;48.566;8.846;2022-11-15T06:33:43;15.90;;;10.50;;
29294;SDS011;16305;48.566;8.846;2022-11-15T06:36:09;15.20;;;11.37;;
29294;SDS011;16305;48.566;8.846;2022-11-15T06:38:38;16.00;;;9.43;;
29294;SDS011;16305;48.566;8.846;2022-11-15T06:41:05;28.93;;;18.97;;
29294;SDS011;16305;48.566;8.846;2022-11-15T06:43:33;19.17;;;13.63;;
29294;SDS011;16305;48.566;8.846;2022-11-15T06:45:59;14.00;;;10.40;;
29294;SDS011;16305;48.566;8.846;2022-11-15T06:48:26;12.83;;;9.93;;
29294;SDS011;16305;48.566;8.846;2022-11-15T06:50:55;14.33;;;11.03;;
29294;SDS011;16305;48.566;8.846;2022-11-15T06:53:22;17.43;;;11.40;;
29294;SDS011;16305;48.566;8.846;2022-11-15T06:55:49;16.00;;;10.30;;
29294;SDS011;16305;48.566;8.846;2022-11-15T06:58:15;15.97;;;11.73;;
29294;SDS011;16305;48.566;8.846;2022-11-15T07:00:41;15.57;;;10.70;;
29294;SDS011;16305;48.566;8.846;2022-11-15T07:03:07;18.07;;;11.03;;
29294;SDS011;16305;48.566;8.846;2022-11-15T07:05:33;17.13;;;11.30;;
29294;SDS011;16305;48.566;8.846;2022-11-15T07:07:59;12.13;;;10.17;;
29294;SDS011;16305;48.566;8.846;2022-11-15T07:10:25;13.30;;;10.50;;
29294;SDS011;16305;48.566;8.846;2022-11-15T07:12:51;12.37;;;10.03;;
29294;SDS011;16305;48.566;8.846;2022-11-15T07:15:17;11.57;;;9.73;;
29294;SDS011;16305;48.566;8.846;2022-11-15T07:17:44;13.80;;;9.83;;
29294;SDS011;16305;48.566;8.846;2022-11-15T07:20:09;15.10;;;10.07;;
29294;SDS011;16305;48.566;8.846;2022-11-15T07:22:36;13.40;;;9.17;;
29294;SDS011;16305;48.566;8.846;2022-11-15T07:25:01;11.57;;;9.13;;
29294;SDS011;16305;48.566;8.846;2022-11-15T07:27:27;13.00;;;9.30;;
29294;SDS011;16305;48.566;8.846;2022-11-15T07:29:53;11.90;;;8.73;;
29294;SDS011;16305;48.566;8.846;2022-11-15T07:32:18;13.37;;;8.47;;
29294;SDS011;16305;48.566;8.846;2022-11-15T07:34:44;9.20;;;8.20;;
29294;SDS011;16305;48.566;8.846;2022-11-15T07:37:10;10.77;;;8.47;;
29294;SDS011;16305;48.566;8.846;2022-11-15T07:39:36;12.67;;;8.87;;
29294;SDS011;16305;48.566;8.846;2022-11-15T07:42:02;10.33;;;8.47;;
29294;SDS011;16305;48.566;8.846;2022-11-15T07:44:47;11.87;;;9.37;;
29294;SDS011;16305;48.566;8.846;2022-11-15T07:47:12;16.70;;;11.10;;
29294;SDS011;16305;48.566;8.846;2022-11-15T07:49:38;15.00;;;11.53;;
29294;SDS011;16305;48.566;8.846;2022-11-15T07:52:03;16.13;;;13.00;;
29294;SDS011;16305;48.566;8.846;2022-11-15T07:54:29;19.10;;;14.27;;
29294;SDS011;16305;48.566;8.846;2022-11-15T07:56:54;17.20;;;11.73;;
29294;SDS011;16305;48.566;8.846;2022-11-15T07:59:20;14.00;;;11.70;;
29294;SDS011;16305;48.566;8.846;2022-11-15T08:01:46;17.13;;;12.97;;
29294;SDS011;16305;48.566;8.846;2022-11-15T08:04:11;14.33;;;11.00;;
29294;SDS011;16305;48.566;8.846;2022-11-15T08:06:37;10.90;;;8.10;;
29294;SDS011;16305;48.566;8.846;2022-11-15T08:09:03;9.03;;;7.60;;
29294;SDS011;16305;48.566;8.846;2022-11-15T08:11:28;8.83;;;6.37;;
29294;SDS011;16305;48.566;8.846;2022-11-15T08:13:54;8.53;;;5.97;;
29294;SDS011;16305;48.566;8.846;2022-11-15T08:16:19;6.87;;;5.37;;
29294;SDS011;16305;48.566;8.846;2022-11-15T08:18:45;8.97;;;5.83;;
29294;SDS011;16305;48.566;8.846;2022-11-15T08:21:11;8.10;;;6.80;;
29294;SDS011;16305;48.566;8.846;2022-11-15T08:23:41;9.30;;;5.93;;
29294;SDS011;16305;48.566;8.846;2022-11-15T08:26:06;12.37;;;8.17;;
29294;SDS011;16305;48.566;8.846;2022-11-15T08:28:33;7.87;;;5.70;;
29294;SDS011;16305;48.566;8.846;2022-11-15T08:30:58;7.77;;;5.67;;
29294;SDS011;16305;48.566;8.846;2022-11-15T08:33:24;6.77;;;4.90;;
29294;SDS011;16305;48.566;8.846;2022-11-15T08:35:50;6.27;;;5.23;;
29294;SDS011;16305;48.566;8.846;2022-11-15T08:38:15;6.50;;;5.03;;
29294;SDS011;16305;48.566;8.846;2022-11-15T08:40:41;8.53;;;5.03;;
29294;SDS011;16305;48.566;8.846;2022-11-15T08:43:06;7.80;;;5.37;;
29294;SDS011;16305;48.566;8.846;2022-11-15T08:45:33;10.40;;;6.30;;
29294;SDS011;16305;48.566;8.846;2022-11-15T08:48:01;8.00;;;5.47;;
29294;SDS011;16305;48.566;8.846;2022-11-15T08:50:27;8.10;;;5.73;;
29294;SDS011;16305;48.566;8.846;2022-11-15T08:52:53;5.53;;;4.93;;
29294;SDS011;16305;48.566;8.846;2022-11-15T08:55:18;9.87;;;5.13;;
29294;SDS011;16305;48.566;8.846;2022-11-15T08:57:44;8.97;;;5.80;;
29294;SDS011;16305;48.566;8.846;2022-11-15T09:00:10;7.50;;;6.27;;
29294;SDS011;16305;48.566;8.846;2022-11-15T09:02:37;11.43;;;6.10;;
29294;SDS011;16305;48.566;8.846;2022-11-15T09:05:06;10.43;;;6.80;;
29294;SDS011;16305;48.566;8.846;2022-11-15T09:07:32;11.40;;;6.53;;
29294;SDS011;16305;48.566;8.846;2022-11-15T09:09:58;11.17;;;7.00;;
29294;SDS011;16305;48.566;8.846;2022-11-15T09:12:23;9.23;;;6.10;;
29294;SDS011;16305;48.566;8.846;2022-11-15T09:14:50;7.70;;;5.73;;
29294;SDS011;16305;48.566;8.846;2022-11-15T09:17:16;8.03;;;5.50;;
29294;SDS011;16305;48.566;8.846;2022-11-15T09:19:41;7.83;;;5.13;;
29294;SDS011;16305;48.566;8.846;2022-11-15T09:22:07;10.43;;;5.20;;
29294;SDS011;16305;48.566;8.846;2022-11-15T09:24:33;14.93;;;9.33;;
29294;SDS011;16305;48.566;8.846;2022-11-15T09:26:59;6.77;;;5.90;;
29294;SDS011;16305;48.566;8.846;2022-11-15T09:29:25;8.00;;;5.47;;
29294;SDS011;16305;48.566;8.846;2022-11-15T09:31:51;8.93;;;4.67;;
29294;SDS011;16305;48.566;8.846;2022-11-15T09:34:17;8.97;;;4.50;;
29294;SDS011;16305;48.566;8.846;2022-11-15T09:36:43;8.30;;;5.00;;
29294;SDS011;16305;48.566;8.846;2022-11-15T09:39:08;7.93;;;6.60;;
29294;SDS011;16305;48.566;8.846;2022-11-15T09:41:48;7.30;;;6.57;;
29294;SDS011;16305;48.566;8.846;2022-11-15T09:44:45;8.33;;;6.60;;
29294;SDS011;16305;48.566;8.846;2022-11-15T09:47:29;9.13;;;7.03;;
29294;SDS011;16305;48.566;8.846;2022-11-15T09:49:59;8.60;;;7.60;;
29294;SDS011;16305;48.566;8.846;2022-11-15T09:52:27;10.97;;;8.17;;
29294;SDS011;16305;48.566;8.846;2022-11-15T09:54:52;9.77;;;7.33;;
29294;SDS011;16305;48.566;8.846;2022-11-15T10:00:08;8.47;;;7.03;;
29294;SDS011;16305;48.566;8.846;2022-11-15T10:05:16;8.30;;;6.43;;
29294;SDS011;16305;48.566;8.846;2022-11-15T10:12:54;7.47;;;6.53;;
29294;SDS011;16305;48.566;8.846;2022-11-15T10:15:20;7.93;;;6.93;;
29294;SDS011;16305;48.566;8.846;2022-11-15T10:18:07;7.67;;;6.60;;
29294;SDS011;16305;48.566;8.846;2022-11-15T10:20:50;11.07;;;7.40;;
29294;SDS011;16305;48.566;8.846;2022-11-15T10:23:21;10.10;;;7.63;;
29294;SDS011;16305;48.566;8.846;2022-11-15T10:25:49;8.73;;;7.70;;
29294;SDS011;16305;48.566;8.846;2022-11-15T10:28:21;10.17;;;6.80;;
29294;SDS011;16305;48.566;8.846;2022-11-15T10:30:55;14.63;;;8.13;;
29294;SDS011;16305;48.566;8.846;2022-11-15T10:36:17;13.03;;;8.37;;
29294;SDS011;16305;48.566;8.846;2022-11-15T10:41:14;8.57;;;6.70;;
29294;SDS011;16305;48.566;8.846;2022-11-15T10:43:44;11.47;;;6.30;;
29294;SDS011;16305;48.566;8.846;2022-11-15T10:46:26;12.53;;;6.33;;
29294;SDS011;16305;48.566;8.846;2022-11-15T10:48:51;7.67;;;6.67;;
29294;SDS011;16305;48.566;8.846;2022-11-15T10:51:27;7.90;;;7.10;;
29294;SDS011;16305;48.566;8.846;2022-11-15T10:53:56;7.07;;;6.30;;
29294;SDS011;16305;48.566;8.846;2022-11-15T10:56:24;8.20;;;6.57;;
29294;SDS011;16305;48.566;8.846;2022-11-15T10:58:53;8.27;;;6.87;;
29294;SDS011;16305;48.566;8.846;2022-11-15T11:01:23;9.73;;;7.53;;
29294;SDS011;16305;48.566;8.846;2022-11-15T11:04:03;13.53;;;7.20;;
29294;SDS011;16305;48.566;8.846;2022-11-15T11:06:30;9.63;;;7.23;;
29294;SDS011;16305;48.566;8.846;2022-11-15T11:09:21;7.77;;;6.97;;
29294;SDS011;16305;48.566;8.846;2022-11-15T11:11:53;13.40;;;7.60;;
29294;SDS011;16305;48.566;8.846;2022-11-15T11:14:26;11.27;;;7.10;;
29294;SDS011;16305;48.566;8.846;2022-11-15T11:24:59;7.00;;;6.30;;
29294;SDS011;16305;48.566;8.846;2022-11-15T11:36:05;7.03;;;6.30;;
29294;SDS011;16305;48.566;8.846;2022-11-15T11:39:17;10.20;;;6.27;;
29294;SDS011;16305;48.566;8.846;2022-11-15T11:42:09;8.97;;;6.47;;
29294;SDS011;16305;48.566;8.846;2022-11-15T11:48:01;6.43;;;5.80;;
29294;SDS011;16305;48.566;8.846;2022-11-15T11:50:33;9.83;;;6.77;;
29294;SDS011;16305;48.566;8.846;2022-11-15T11:53:25;12.33;;;8.97;;
29294;SDS011;16305;48.566;8.846;2022-11-15T11:56:18;12.23;;;7.83;;
29294;SDS011;16305;48.566;8.846;2022-11-15T11:58:50;12.07;;;8.00;;
29294;SDS011;16305;48.566;8.846;2022-11-15T12:01:24;9.10;;;6.57;;
29294;SDS011;16305;48.566;8.846;2022-11-15T12:09:15;12.53;;;7.73;;
29294;SDS011;16305;48.566;8.846;2022-11-15T12:11:55;12.23;;;6.97;;
29294;SDS011;16305;48.566;8.846;2022-11-15T12:14:53;10.10;;;7.70;;
29294;SDS011;16305;48.566;8.846;2022-11-15T12:17:26;9.33;;;6.13;;
29294;SDS011;16305;48.566;8.846;2022-11-15T12:19:57;8.07;;;7.07;;
29294;SDS011;16305;48.566;8.846;2022-11-15T12:25:23;9.50;;;7.07;;
29294;SDS011;16305;48.566;8.846;2022-11-15T12:27:59;8.97;;;6.27;;
29294;SDS011;16305;48.566;8.846;2022-11-15T12:30:42;6.93;;;4.83;;
29294;SDS011;16305;48.566;8.846;2022-11-15T12:41:26;5.27;;;4.60;;
29294;SDS011;16305;48.566;8.846;2022-11-15T12:43:54;5.30;;;3.63;;
29294;SDS011;16305;48.566;8.846;2022-11-15T12:49:02;8.70;;;4.60;;
29294;SDS011;16305;48.566;8.846;2022-11-15T13:02:18;7.90;;;5.77;;
29294;SDS011;16305;48.566;8.846;2022-11-15T13:04:46;7.20;;;6.47;;
29294;SDS011;16305;48.566;8.846;2022-11-15T13:09:59;6.90;;;5.97;;
29294;SDS011;16305;48.566;8.846;2022-11-15T13:14:57;8.23;;;5.77;;
29294;SDS011;16305;48.566;8.846;2022-11-15T13:17:29;8.70;;;6.03;;
29294;SDS011;16305;48.566;8.846;2022-11-15T13:22:27;6.97;;;6.30;;
29294;SDS011;16305;48.566;8.846;2022-11-15T13:27:55;9.17;;;7.10;;
29294;SDS011;16305;48.566;8.846;2022-11-15T13:30:26;7.50;;;6.30;;
29294;SDS011;16305;48.566;8.846;2022-11-15T13:32:53;9.00;;;7.50;;
29294;SDS011;16305;48.566;8.846;2022-11-15T13:35:23;9.80;;;7.60;;
29294;SDS011;16305;48.566;8.846;2022-11-15T13:37:53;12.70;;;8.03;;
29294;SDS011;16305;48.566;8.846;2022-11-15T13:40:27;8.60;;;7.80;;
29294;SDS011;16305;48.566;8.846;2022-11-15T13:42:58;8.03;;;7.23;;
29294;SDS011;16305;48.566;8.846;2022-11-15T13:45:24;10.03;;;7.47;;
29294;SDS011;16305;48.566;8.846;2022-11-15T13:47:55;9.87;;;7.93;;
29294;SDS011;16305;48.566;8.846;2022-11-15T13:50:24;12.13;;;8.83;;
29294;SDS011;16305;48.566;8.846;2022-11-15T13:52:57;11.50;;;8.17;;
29294;SDS011;16305;48.566;8.846;2022-11-15T13:55:25;10.43;;;8.13;;
29294;SDS011;16305;48.566;8.846;2022-11-15T13:57:53;9.73;;;8.70;;
29294;SDS011;16305;48.566;8.846;2022-11-15T14:00:24;10.13;;;8.37;;
29294;SDS011;16305;48.566;8.846;2022-11-15T14:02:50;9.63;;;8.63;;
29294;SDS011;16305;48.566;8.846;2022-11-15T14:05:20;11.83;;;8.63;;
29294;SDS011;16305;48.566;8.846;2022-11-15T14:07:55;9.33;;;8.17;;
29294;SDS011;16305;48.566;8.846;2022-11-15T14:10:30;10.80;;;8.50;;
29294;SDS011;16305;48.566;8.846;2022-11-15T14:12:57;11.93;;;8.87;;
29294;SDS011;16305;48.566;8.846;2022-11-15T14:15:34;9.87;;;8.20;;
29294;SDS011;16305;48.566;8.846;2022-11-15T14:18:01;9.70;;;8.67;;
29294;SDS011;16305;48.566;8.846;2022-11-15T14:20:32;14.07;;;8.60;;
29294;SDS011;16305;48.566;8.846;2022-11-15T14:23:04;10.27;;;9.17;;
29294;SDS011;16305;48.566;8.846;2022-11-15T14:25:33;12.73;;;8.97;;
29294;SDS011;16305;48.566;8.846;2022-11-15T14:30:50;11.73;;;9.00;;
29294;SDS011;16305;48.566;8.846;2022-11-15T14:33:22;11.27;;;7.63;;
29294;SDS011;16305;48.566;8.846;2022-11-15T14:35:50;10.17;;;7.63;;
29294;SDS011;16305;48.566;8.846;2022-11-15T14:38:17;10.53;;;8.17;;
29294;SDS011;16305;48.566;8.846;2022-11-15T14:40:43;9.10;;;7.67;;
29294;SDS011;16305;48.566;8.846;2022-11-15T14:43:09;11.97;;;7.70;;
29294;SDS011;16305;48.566;8.846;2022-11-15T14:45:36;8.27;;;7.40;;
29294;SDS011;16305;48.566;8.846;2022-11-15T14:48:02;8.90;;;7.27;;
29294;SDS011;16305;48.566;8.846;2022-11-15T14:50:28;13.30;;;7.37;;
29294;SDS011;16305;48.566;8.846;2022-11-15T14:52:54;9.40;;;7.07;;
29294;SDS011;16305;48.566;8.846;2022-11-15T14:58:14;9.30;;;7.60;;
29294;SDS011;16305;48.566;8.846;2022-11-15T15:00:40;7.63;;;6.83;;
29294;SDS011;16305;48.566;8.846;2022-11-15T15:03:06;11.10;;;6.77;;
29294;SDS011;16305;48.566;8.846;2022-11-15T15:05:33;9.00;;;7.67;;
29294;SDS011;16305;48.566;8.846;2022-11-15T15:08:04;9.57;;;7.67;;
29294;SDS011;16305;48.566;8.846;2022-11-15T15:10:31;15.27;;;7.47;;
29294;SDS011;16305;48.566;8.846;2022-11-15T15:12:58;8.50;;;7.20;;
29294;SDS011;16305;48.566;8.846;2022-11-15T15:15:25;8.63;;;6.83;;
29294;SDS011;16305;48.566;8.846;2022-11-15T15:17:54;7.90;;;6.83;;
29294;SDS011;16305;48.566;8.846;2022-11-15T15:20:19;9.23;;;7.33;;
29294;SDS011;16305;48.566;8.846;2022-11-15T15:22:45;9.87;;;7.50;;
29294;SDS011;16305;48.566;8.846;2022-11-15T15:25:26;7.83;;;6.50;;
29294;SDS011;16305;48.566;8.846;2022-11-15T15:27:54;8.60;;;7.70;;
29294;SDS011;16305;48.566;8.846;2022-11-15T15:30:21;11.23;;;8.07;;
29294;SDS011;16305;48.566;8.846;2022-11-15T15:32:50;11.00;;;8.00;;
29294;SDS011;16305;48.566;8.846;2022-11-15T15:35:16;10.70;;;8.23;;
29294;SDS011;16305;48.566;8.846;2022-11-15T15:37:42;11.33;;;8.10;;
29294;SDS011;16305;48.566;8.846;2022-11-15T15:40:16;9.47;;;7.60;;
29294;SDS011;16305;48.566;8.846;2022-11-15T15:42:44;13.13;;;9.10;;
29294;SDS011;16305;48.566;8.846;2022-11-15T15:45:11;11.47;;;8.97;;
29294;SDS011;16305;48.566;8.846;2022-11-15T15:47:36;19.13;;;11.90;;
29294;SDS011;16305;48.566;8.846;2022-11-15T15:50:03;17.57;;;14.43;;
29294;SDS011;16305;48.566;8.846;2022-11-15T15:52:36;16.60;;;13.63;;
29294;SDS011;16305;48.566;8.846;2022-11-15T15:55:02;15.27;;;12.40;;
29294;SDS011;16305;48.566;8.846;2022-11-15T15:57:27;15.50;;;11.80;;
29294;SDS011;16305;48.566;8.846;2022-11-15T15:59:53;15.83;;;11.83;;
29294;SDS011;16305;48.566;8.846;2022-11-15T16:02:18;15.10;;;10.63;;
29294;SDS011;16305;48.566;8.846;2022-11-15T16:04:44;21.37;;;11.27;;
29294;SDS011;16305;48.566;8.846;2022-11-15T16:07:15;12.27;;;9.97;;
29294;SDS011;16305;48.566;8.846;2022-11-15T16:09:45;10.27;;;9.17;;
29294;SDS011;16305;48.566;8.846;2022-11-15T16:12:29;11.30;;;9.00;;
29294;SDS011;16305;48.566;8.846;2022-11-15T16:14:59;12.07;;;9.63;;
29294;SDS011;16305;48.566;8.846;2022-11-15T16:17:26;12.90;;;10.00;;
29294;SDS011;16305;48.566;8.846;2022-11-15T16:19:55;14.33;;;9.53;;
29294;SDS011;16305;48.566;8.846;2022-11-15T16:22:20;12.20;;;9.63;;
29294;SDS011;16305;48.566;8.846;2022-11-15T16:24:46;12.93;;;10.30;;
29294;SDS011;16305;48.566;8.846;2022-11-15T16:27:15;57.90;;;25.67;;
29294;SDS011;16305;48.566;8.846;2022-11-15T16:29:42;84.40;;;38.73;;
29294;SDS011;16305;48.566;8.846;2022-11-15T16:32:08;40.00;;;22.37;;
29294;SDS011;16305;48.566;8.846;2022-11-15T16:34:34;23.70;;;14.60;;